sensor_id;sensor_type;location;lat;lon;timestamp;P1;durP1;ratioP1;P2;durP2;ratioP2
11731;SDS011;5922;53.734;10.258;2023-03-17T00:01:07;2.93;;;1.97;;
11731;SDS011;5922;53.734;10.258;2023-03-17T00:03:38;6.27;;;2.37;;
11731;SDS011;5922;53.734;10.258;2023-03-17T00:06:08;3.47;;;1.97;;
11731;SDS011;5922;53.734;10.258;2023-03-17T00:08:38;2.73;;;2.10;;
11731;SDS011;5922;53.734;10.258;2023-03-17T00:11:08;4.63;;;2.10;;
11731;SDS011;5922;53.734;10.258;2023-03-17T00:13:37;2.97;;;2.13;;
11731;SDS011;5922;53.734;10.258;2023-03-17T00:16:05;3.77;;;2.00;;
11731;SDS011;5922;53.734;10.258;2023-03-17T00:18:33;3.13;;;2.00;;
11731;SDS011;5922;53.734;10.258;2023-03-17T00:21:02;3.77;;;2.23;;
11731;SDS011;5922;53.734;10.258;2023-03-17T00:23:29;5.43;;;2.27;;
11731;SDS011;5922;53.734;10.258;2023-03-17T00:25:56;4.33;;;2.10;;
11731;SDS011;5922;53.734;10.258;2023-03-17T00:28:24;3.33;;;2.10;;
11731;SDS011;5922;53.734;10.258;2023-03-17T00:30:57;4.23;;;1.93;;
11731;SDS011;5922;53.734;10.258;2023-03-17T00:33:25;3.63;;;2.17;;
11731;SDS011;5922;53.734;10.258;2023-03-17T00:35:53;3.80;;;1.97;;
11731;SDS011;5922;53.734;10.258;2023-03-17T00:38:22;3.07;;;2.23;;
11731;SDS011;5922;53.734;10.258;2023-03-17T00:40:49;3.87;;;2.10;;
11731;SDS011;5922;53.734;10.258;2023-03-17T00:43:17;3.40;;;2.13;;
11731;SDS011;5922;53.734;10.258;2023-03-17T00:45:44;2.73;;;2.17;;
11731;SDS011;5922;53.734;10.258;2023-03-17T00:48:12;2.97;;;1.90;;
11731;SDS011;5922;53.734;10.258;2023-03-17T00:50:40;2.57;;;2.10;;
11731;SDS011;5922;53.734;10.258;2023-03-17T00:53:09;2.30;;;2.10;;
11731;SDS011;5922;53.734;10.258;2023-03-17T00:55:38;3.13;;;2.17;;
11731;SDS011;5922;53.734;10.258;2023-03-17T00:58:09;3.13;;;2.30;;
11731;SDS011;5922;53.734;10.258;2023-03-17T01:00:38;3.20;;;2.00;;
11731;SDS011;5922;53.734;10.258;2023-03-17T01:03:07;4.80;;;2.23;;
11731;SDS011;5922;53.734;10.258;2023-03-17T01:05:35;2.87;;;2.47;;
11731;SDS011;5922;53.734;10.258;2023-03-17T01:08:03;2.40;;;1.97;;
11731;SDS011;5922;53.734;10.258;2023-03-17T01:10:30;5.43;;;2.70;;
11731;SDS011;5922;53.734;10.258;2023-03-17T01:12:59;5.90;;;2.53;;
11731;SDS011;5922;53.734;10.258;2023-03-17T01:15:27;3.37;;;2.10;;
11731;SDS011;5922;53.734;10.258;2023-03-17T01:17:55;3.13;;;2.10;;
11731;SDS011;5922;53.734;10.258;2023-03-17T01:20:24;5.60;;;2.53;;
11731;SDS011;5922;53.734;10.258;2023-03-17T01:22:51;5.23;;;2.40;;
11731;SDS011;5922;53.734;10.258;2023-03-17T01:25:21;5.70;;;2.00;;
11731;SDS011;5922;53.734;10.258;2023-03-17T01:27:49;2.70;;;1.90;;
11731;SDS011;5922;53.734;10.258;2023-03-17T01:30:22;4.17;;;2.20;;
11731;SDS011;5922;53.734;10.258;2023-03-17T01:32:50;3.80;;;2.33;;
11731;SDS011;5922;53.734;10.258;2023-03-17T01:35:18;4.43;;;2.33;;
11731;SDS011;5922;53.734;10.258;2023-03-17T01:37:46;4.00;;;2.53;;
11731;SDS011;5922;53.734;10.258;2023-03-17T01:40:15;2.83;;;2.00;;
11731;SDS011;5922;53.734;10.258;2023-03-17T01:42:46;2.70;;;2.10;;
11731;SDS011;5922;53.734;10.258;2023-03-17T01:48:02;3.37;;;2.13;;
11731;SDS011;5922;53.734;10.258;2023-03-17T01:50:29;3.17;;;2.10;;
11731;SDS011;5922;53.734;10.258;2023-03-17T01:52:57;5.30;;;2.40;;
11731;SDS011;5922;53.734;10.258;2023-03-17T01:55:24;3.10;;;2.13;;
11731;SDS011;5922;53.734;10.258;2023-03-17T01:57:52;4.23;;;2.33;;
11731;SDS011;5922;53.734;10.258;2023-03-17T02:00:21;3.00;;;2.23;;
11731;SDS011;5922;53.734;10.258;2023-03-17T02:02:51;6.67;;;2.50;;
11731;SDS011;5922;53.734;10.258;2023-03-17T02:05:21;4.00;;;2.30;;
11731;SDS011;5922;53.734;10.258;2023-03-17T02:07:50;4.40;;;2.40;;
11731;SDS011;5922;53.734;10.258;2023-03-17T02:10:18;3.80;;;2.10;;
11731;SDS011;5922;53.734;10.258;2023-03-17T02:12:46;4.53;;;2.70;;
11731;SDS011;5922;53.734;10.258;2023-03-17T02:15:14;3.70;;;2.40;;
11731;SDS011;5922;53.734;10.258;2023-03-17T02:17:41;2.87;;;2.40;;
11731;SDS011;5922;53.734;10.258;2023-03-17T02:22:56;3.40;;;2.43;;
11731;SDS011;5922;53.734;10.258;2023-03-17T02:25:23;3.40;;;2.37;;
11731;SDS011;5922;53.734;10.258;2023-03-17T02:27:53;3.43;;;2.30;;
11731;SDS011;5922;53.734;10.258;2023-03-17T02:30:23;3.53;;;2.13;;
11731;SDS011;5922;53.734;10.258;2023-03-17T02:32:50;3.10;;;2.20;;
11731;SDS011;5922;53.734;10.258;2023-03-17T02:35:18;5.90;;;2.37;;
11731;SDS011;5922;53.734;10.258;2023-03-17T02:37:45;3.40;;;2.30;;
11731;SDS011;5922;53.734;10.258;2023-03-17T02:40:14;3.13;;;2.30;;
11731;SDS011;5922;53.734;10.258;2023-03-17T02:42:47;4.60;;;2.90;;
11731;SDS011;5922;53.734;10.258;2023-03-17T02:45:15;4.37;;;2.70;;
11731;SDS011;5922;53.734;10.258;2023-03-17T02:47:42;5.07;;;2.80;;
11731;SDS011;5922;53.734;10.258;2023-03-17T02:50:13;3.67;;;2.60;;
11731;SDS011;5922;53.734;10.258;2023-03-17T02:52:46;3.33;;;2.47;;
11731;SDS011;5922;53.734;10.258;2023-03-17T02:55:13;4.00;;;2.50;;
11731;SDS011;5922;53.734;10.258;2023-03-17T02:57:43;4.13;;;2.50;;
11731;SDS011;5922;53.734;10.258;2023-03-17T03:00:13;5.03;;;2.50;;
11731;SDS011;5922;53.734;10.258;2023-03-17T03:02:40;2.73;;;2.20;;
11731;SDS011;5922;53.734;10.258;2023-03-17T03:05:08;3.20;;;2.50;;
11731;SDS011;5922;53.734;10.258;2023-03-17T03:07:36;5.27;;;3.27;;
11731;SDS011;5922;53.734;10.258;2023-03-17T03:10:04;3.80;;;2.43;;
11731;SDS011;5922;53.734;10.258;2023-03-17T03:12:31;4.30;;;2.43;;
11731;SDS011;5922;53.734;10.258;2023-03-17T03:14:59;3.40;;;2.60;;
11731;SDS011;5922;53.734;10.258;2023-03-17T03:17:27;4.00;;;2.57;;
11731;SDS011;5922;53.734;10.258;2023-03-17T03:19:55;5.43;;;2.70;;
11731;SDS011;5922;53.734;10.258;2023-03-17T03:22:22;4.87;;;2.70;;
11731;SDS011;5922;53.734;10.258;2023-03-17T03:24:49;3.80;;;2.73;;
11731;SDS011;5922;53.734;10.258;2023-03-17T03:27:17;6.33;;;2.90;;
11731;SDS011;5922;53.734;10.258;2023-03-17T03:29:44;5.17;;;2.73;;
11731;SDS011;5922;53.734;10.258;2023-03-17T03:32:11;5.90;;;2.90;;
11731;SDS011;5922;53.734;10.258;2023-03-17T03:34:40;4.03;;;2.70;;
11731;SDS011;5922;53.734;10.258;2023-03-17T03:37:07;5.40;;;2.80;;
11731;SDS011;5922;53.734;10.258;2023-03-17T03:39:35;6.83;;;2.77;;
11731;SDS011;5922;53.734;10.258;2023-03-17T03:42:03;4.47;;;3.13;;
11731;SDS011;5922;53.734;10.258;2023-03-17T03:44:31;3.57;;;2.70;;
11731;SDS011;5922;53.734;10.258;2023-03-17T03:46:58;4.33;;;2.60;;
11731;SDS011;5922;53.734;10.258;2023-03-17T03:49:25;5.03;;;3.00;;
11731;SDS011;5922;53.734;10.258;2023-03-17T03:51:54;4.17;;;2.67;;
11731;SDS011;5922;53.734;10.258;2023-03-17T03:54:22;6.43;;;3.00;;
11731;SDS011;5922;53.734;10.258;2023-03-17T03:56:49;4.40;;;2.73;;
11731;SDS011;5922;53.734;10.258;2023-03-17T03:59:16;3.90;;;2.60;;
11731;SDS011;5922;53.734;10.258;2023-03-17T04:01:44;3.90;;;2.83;;
11731;SDS011;5922;53.734;10.258;2023-03-17T04:04:11;4.67;;;3.13;;
11731;SDS011;5922;53.734;10.258;2023-03-17T04:06:38;4.43;;;2.70;;
11731;SDS011;5922;53.734;10.258;2023-03-17T04:09:07;5.67;;;2.70;;
11731;SDS011;5922;53.734;10.258;2023-03-17T04:11:35;5.47;;;3.10;;
11731;SDS011;5922;53.734;10.258;2023-03-17T04:14:02;5.00;;;3.27;;
11731;SDS011;5922;53.734;10.258;2023-03-17T04:16:30;4.33;;;2.87;;
11731;SDS011;5922;53.734;10.258;2023-03-17T04:18:57;4.33;;;3.00;;
11731;SDS011;5922;53.734;10.258;2023-03-17T04:21:24;4.10;;;2.73;;
11731;SDS011;5922;53.734;10.258;2023-03-17T04:23:52;3.63;;;3.17;;
11731;SDS011;5922;53.734;10.258;2023-03-17T04:26:37;5.00;;;3.00;;
11731;SDS011;5922;53.734;10.258;2023-03-17T04:29:05;4.33;;;2.80;;
11731;SDS011;5922;53.734;10.258;2023-03-17T04:31:39;5.13;;;2.93;;
11731;SDS011;5922;53.734;10.258;2023-03-17T04:34:15;7.27;;;2.70;;
11731;SDS011;5922;53.734;10.258;2023-03-17T04:37:15;5.50;;;2.80;;
11731;SDS011;5922;53.734;10.258;2023-03-17T04:39:58;4.77;;;3.03;;
11731;SDS011;5922;53.734;10.258;2023-03-17T04:42:47;4.60;;;2.77;;
11731;SDS011;5922;53.734;10.258;2023-03-17T04:45:28;3.47;;;2.87;;
11731;SDS011;5922;53.734;10.258;2023-03-17T04:47:58;5.13;;;3.17;;
11731;SDS011;5922;53.734;10.258;2023-03-17T04:50:31;4.00;;;2.93;;
11731;SDS011;5922;53.734;10.258;2023-03-17T05:02:34;4.80;;;2.70;;
11731;SDS011;5922;53.734;10.258;2023-03-17T05:05:18;6.00;;;2.90;;
11731;SDS011;5922;53.734;10.258;2023-03-17T05:07:45;4.03;;;2.80;;
11731;SDS011;5922;53.734;10.258;2023-03-17T05:10:15;5.67;;;3.03;;
11731;SDS011;5922;53.734;10.258;2023-03-17T05:12:45;4.10;;;3.30;;
11731;SDS011;5922;53.734;10.258;2023-03-17T05:15:18;5.70;;;3.50;;
11731;SDS011;5922;53.734;10.258;2023-03-17T05:17:47;4.13;;;2.87;;
11731;SDS011;5922;53.734;10.258;2023-03-17T05:20:15;4.00;;;3.07;;
11731;SDS011;5922;53.734;10.258;2023-03-17T05:22:42;5.17;;;3.00;;
11731;SDS011;5922;53.734;10.258;2023-03-17T05:25:10;4.70;;;3.70;;
11731;SDS011;5922;53.734;10.258;2023-03-17T05:27:37;4.93;;;3.20;;
11731;SDS011;5922;53.734;10.258;2023-03-17T05:30:05;4.23;;;3.80;;
11731;SDS011;5922;53.734;10.258;2023-03-17T05:32:32;4.70;;;3.10;;
11731;SDS011;5922;53.734;10.258;2023-03-17T05:35:02;4.87;;;3.00;;
11731;SDS011;5922;53.734;10.258;2023-03-17T05:37:30;3.83;;;3.03;;
11731;SDS011;5922;53.734;10.258;2023-03-17T05:39:57;5.40;;;3.27;;
11731;SDS011;5922;53.734;10.258;2023-03-17T05:42:25;4.10;;;3.10;;
11731;SDS011;5922;53.734;10.258;2023-03-17T05:44:52;4.67;;;2.80;;
11731;SDS011;5922;53.734;10.258;2023-03-17T05:47:19;4.87;;;3.30;;
11731;SDS011;5922;53.734;10.258;2023-03-17T05:49:47;3.90;;;2.90;;
11731;SDS011;5922;53.734;10.258;2023-03-17T05:52:16;5.53;;;3.27;;
11731;SDS011;5922;53.734;10.258;2023-03-17T05:54:43;4.93;;;3.20;;
11731;SDS011;5922;53.734;10.258;2023-03-17T05:57:12;4.43;;;3.23;;
11731;SDS011;5922;53.734;10.258;2023-03-17T05:59:40;3.97;;;3.37;;
11731;SDS011;5922;53.734;10.258;2023-03-17T06:02:08;4.63;;;3.27;;
11731;SDS011;5922;53.734;10.258;2023-03-17T06:04:36;3.93;;;3.13;;
11731;SDS011;5922;53.734;10.258;2023-03-17T06:07:03;6.87;;;3.83;;
11731;SDS011;5922;53.734;10.258;2023-03-17T06:09:32;4.00;;;3.37;;
11731;SDS011;5922;53.734;10.258;2023-03-17T06:11:59;7.40;;;3.53;;
11731;SDS011;5922;53.734;10.258;2023-03-17T06:14:27;4.30;;;3.07;;
11731;SDS011;5922;53.734;10.258;2023-03-17T06:16:55;6.93;;;3.53;;
11731;SDS011;5922;53.734;10.258;2023-03-17T06:19:22;4.73;;;3.40;;
11731;SDS011;5922;53.734;10.258;2023-03-17T06:21:50;6.17;;;3.90;;
11731;SDS011;5922;53.734;10.258;2023-03-17T06:24:17;4.57;;;3.17;;
11731;SDS011;5922;53.734;10.258;2023-03-17T06:26:46;5.70;;;3.60;;
11731;SDS011;5922;53.734;10.258;2023-03-17T06:29:13;5.33;;;3.73;;
11731;SDS011;5922;53.734;10.258;2023-03-17T06:31:40;5.87;;;3.83;;
11731;SDS011;5922;53.734;10.258;2023-03-17T06:34:16;4.40;;;3.23;;
11731;SDS011;5922;53.734;10.258;2023-03-17T06:36:44;4.13;;;3.33;;
11731;SDS011;5922;53.734;10.258;2023-03-17T06:39:12;5.23;;;3.43;;
11731;SDS011;5922;53.734;10.258;2023-03-17T06:41:40;4.27;;;3.43;;
11731;SDS011;5922;53.734;10.258;2023-03-17T06:44:09;5.40;;;3.77;;
11731;SDS011;5922;53.734;10.258;2023-03-17T06:46:37;6.50;;;4.00;;
11731;SDS011;5922;53.734;10.258;2023-03-17T06:49:05;4.93;;;3.40;;
11731;SDS011;5922;53.734;10.258;2023-03-17T06:51:32;4.63;;;3.43;;
11731;SDS011;5922;53.734;10.258;2023-03-17T06:54:01;5.00;;;3.23;;
11731;SDS011;5922;53.734;10.258;2023-03-17T06:56:28;5.90;;;3.33;;
11731;SDS011;5922;53.734;10.258;2023-03-17T06:58:56;5.53;;;3.40;;
11731;SDS011;5922;53.734;10.258;2023-03-17T07:01:25;5.73;;;3.90;;
11731;SDS011;5922;53.734;10.258;2023-03-17T07:03:52;4.93;;;3.80;;
11731;SDS011;5922;53.734;10.258;2023-03-17T07:06:20;6.53;;;4.23;;
11731;SDS011;5922;53.734;10.258;2023-03-17T07:08:48;5.73;;;3.80;;
11731;SDS011;5922;53.734;10.258;2023-03-17T07:11:16;4.63;;;3.80;;
11731;SDS011;5922;53.734;10.258;2023-03-17T07:13:43;3.87;;;3.07;;
11731;SDS011;5922;53.734;10.258;2023-03-17T07:16:11;4.13;;;3.57;;
11731;SDS011;5922;53.734;10.258;2023-03-17T07:18:44;8.27;;;3.73;;
11731;SDS011;5922;53.734;10.258;2023-03-17T07:21:12;5.87;;;4.00;;
11731;SDS011;5922;53.734;10.258;2023-03-17T07:23:39;6.67;;;4.00;;
11731;SDS011;5922;53.734;10.258;2023-03-17T07:26:07;4.53;;;3.60;;
11731;SDS011;5922;53.734;10.258;2023-03-17T07:28:34;6.50;;;3.60;;
11731;SDS011;5922;53.734;10.258;2023-03-17T07:31:01;6.57;;;3.70;;
11731;SDS011;5922;53.734;10.258;2023-03-17T07:33:36;5.83;;;3.93;;
11731;SDS011;5922;53.734;10.258;2023-03-17T07:36:07;6.03;;;3.57;;
11731;SDS011;5922;53.734;10.258;2023-03-17T07:38:35;8.80;;;3.83;;
11731;SDS011;5922;53.734;10.258;2023-03-17T07:41:02;5.43;;;3.63;;
11731;SDS011;5922;53.734;10.258;2023-03-17T07:43:34;5.37;;;3.53;;
11731;SDS011;5922;53.734;10.258;2023-03-17T07:46:04;6.50;;;3.63;;
11731;SDS011;5922;53.734;10.258;2023-03-17T07:48:32;5.83;;;4.20;;
11731;SDS011;5922;53.734;10.258;2023-03-17T07:51:02;5.67;;;3.80;;
11731;SDS011;5922;53.734;10.258;2023-03-17T07:53:31;4.33;;;3.47;;
11731;SDS011;5922;53.734;10.258;2023-03-17T07:56:00;5.47;;;4.10;;
11731;SDS011;5922;53.734;10.258;2023-03-17T07:58:28;7.53;;;4.30;;
11731;SDS011;5922;53.734;10.258;2023-03-17T08:00:55;9.70;;;3.70;;
11731;SDS011;5922;53.734;10.258;2023-03-17T08:03:25;4.53;;;3.37;;
11731;SDS011;5922;53.734;10.258;2023-03-17T08:05:54;5.13;;;4.00;;
11731;SDS011;5922;53.734;10.258;2023-03-17T08:08:23;5.77;;;3.90;;
11731;SDS011;5922;53.734;10.258;2023-03-17T08:11:03;4.97;;;3.70;;
11731;SDS011;5922;53.734;10.258;2023-03-17T08:13:32;7.03;;;3.97;;
11731;SDS011;5922;53.734;10.258;2023-03-17T08:15:59;6.23;;;3.70;;
11731;SDS011;5922;53.734;10.258;2023-03-17T08:18:29;5.03;;;3.57;;
11731;SDS011;5922;53.734;10.258;2023-03-17T08:20:56;5.57;;;4.50;;
11731;SDS011;5922;53.734;10.258;2023-03-17T08:23:24;5.83;;;3.70;;
11731;SDS011;5922;53.734;10.258;2023-03-17T08:25:55;5.73;;;3.50;;
11731;SDS011;5922;53.734;10.258;2023-03-17T08:28:24;5.90;;;3.90;;
11731;SDS011;5922;53.734;10.258;2023-03-17T08:30:52;4.97;;;4.17;;
11731;SDS011;5922;53.734;10.258;2023-03-17T08:33:20;8.83;;;4.33;;
11731;SDS011;5922;53.734;10.258;2023-03-17T08:35:56;5.73;;;3.70;;
11731;SDS011;5922;53.734;10.258;2023-03-17T08:38:24;4.23;;;3.83;;
11731;SDS011;5922;53.734;10.258;2023-03-17T08:40:52;5.33;;;3.77;;
11731;SDS011;5922;53.734;10.258;2023-03-17T08:43:20;4.87;;;3.50;;
11731;SDS011;5922;53.734;10.258;2023-03-17T08:45:49;4.70;;;3.70;;
11731;SDS011;5922;53.734;10.258;2023-03-17T08:48:19;7.53;;;3.63;;
11731;SDS011;5922;53.734;10.258;2023-03-17T08:50:46;5.80;;;3.83;;
11731;SDS011;5922;53.734;10.258;2023-03-17T08:53:27;5.60;;;3.60;;
11731;SDS011;5922;53.734;10.258;2023-03-17T08:55:56;4.63;;;3.70;;
11731;SDS011;5922;53.734;10.258;2023-03-17T08:58:23;4.17;;;3.47;;
11731;SDS011;5922;53.734;10.258;2023-03-17T09:06:37;5.37;;;3.87;;
11731;SDS011;5922;53.734;10.258;2023-03-17T09:09:05;5.37;;;4.10;;
11731;SDS011;5922;53.734;10.258;2023-03-17T09:11:33;5.00;;;4.20;;
11731;SDS011;5922;53.734;10.258;2023-03-17T09:14:02;4.70;;;3.70;;
11731;SDS011;5922;53.734;10.258;2023-03-17T09:16:30;5.20;;;3.57;;
11731;SDS011;5922;53.734;10.258;2023-03-17T09:18:58;5.53;;;3.63;;
11731;SDS011;5922;53.734;10.258;2023-03-17T09:21:26;5.17;;;3.97;;
11731;SDS011;5922;53.734;10.258;2023-03-17T09:23:55;4.67;;;3.57;;
11731;SDS011;5922;53.734;10.258;2023-03-17T09:26:22;8.20;;;3.87;;
11731;SDS011;5922;53.734;10.258;2023-03-17T09:28:50;5.60;;;3.90;;
11731;SDS011;5922;53.734;10.258;2023-03-17T09:31:18;5.63;;;4.13;;
11731;SDS011;5922;53.734;10.258;2023-03-17T09:33:45;4.13;;;3.60;;
11731;SDS011;5922;53.734;10.258;2023-03-17T09:36:13;7.13;;;3.33;;
11731;SDS011;5922;53.734;10.258;2023-03-17T09:38:43;5.43;;;3.97;;
11731;SDS011;5922;53.734;10.258;2023-03-17T09:41:20;5.03;;;3.43;;
11731;SDS011;5922;53.734;10.258;2023-03-17T09:43:51;5.53;;;3.63;;
11731;SDS011;5922;53.734;10.258;2023-03-17T09:46:26;4.27;;;3.20;;
11731;SDS011;5922;53.734;10.258;2023-03-17T09:48:57;4.90;;;3.53;;
11731;SDS011;5922;53.734;10.258;2023-03-17T09:52:00;6.57;;;3.53;;
11731;SDS011;5922;53.734;10.258;2023-03-17T09:55:11;7.37;;;3.70;;
11731;SDS011;5922;53.734;10.258;2023-03-17T09:57:44;5.20;;;3.07;;
11731;SDS011;5922;53.734;10.258;2023-03-17T10:00:12;5.10;;;3.37;;
11731;SDS011;5922;53.734;10.258;2023-03-17T10:02:42;6.53;;;3.70;;
11731;SDS011;5922;53.734;10.258;2023-03-17T10:05:30;8.13;;;3.90;;
11731;SDS011;5922;53.734;10.258;2023-03-17T10:08:03;6.17;;;3.40;;
11731;SDS011;5922;53.734;10.258;2023-03-17T10:10:34;6.43;;;3.47;;
11731;SDS011;5922;53.734;10.258;2023-03-17T10:13:06;4.37;;;3.57;;
11731;SDS011;5922;53.734;10.258;2023-03-17T10:15:36;4.60;;;3.57;;
11731;SDS011;5922;53.734;10.258;2023-03-17T10:18:08;5.03;;;3.80;;
11731;SDS011;5922;53.734;10.258;2023-03-17T10:20:35;6.13;;;3.90;;
11731;SDS011;5922;53.734;10.258;2023-03-17T10:23:06;5.63;;;3.33;;
11731;SDS011;5922;53.734;10.258;2023-03-17T10:25:35;5.27;;;3.43;;
11731;SDS011;5922;53.734;10.258;2023-03-17T10:28:05;6.77;;;3.20;;
11731;SDS011;5922;53.734;10.258;2023-03-17T10:30:34;6.10;;;3.60;;
11731;SDS011;5922;53.734;10.258;2023-03-17T10:33:05;5.20;;;3.07;;
11731;SDS011;5922;53.734;10.258;2023-03-17T10:35:33;6.60;;;3.53;;
11731;SDS011;5922;53.734;10.258;2023-03-17T10:38:10;6.50;;;3.70;;
11731;SDS011;5922;53.734;10.258;2023-03-17T10:40:40;3.67;;;3.17;;
11731;SDS011;5922;53.734;10.258;2023-03-17T10:43:15;3.77;;;3.07;;
11731;SDS011;5922;53.734;10.258;2023-03-17T10:45:53;5.43;;;3.23;;
11731;SDS011;5922;53.734;10.258;2023-03-17T10:48:21;3.90;;;3.20;;
11731;SDS011;5922;53.734;10.258;2023-03-17T10:50:49;3.60;;;3.10;;
11731;SDS011;5922;53.734;10.258;2023-03-17T10:53:17;4.33;;;3.27;;
11731;SDS011;5922;53.734;10.258;2023-03-17T10:55:52;4.60;;;3.03;;
11731;SDS011;5922;53.734;10.258;2023-03-17T10:58:34;3.30;;;2.90;;
11731;SDS011;5922;53.734;10.258;2023-03-17T11:01:04;5.43;;;3.20;;
11731;SDS011;5922;53.734;10.258;2023-03-17T11:03:34;5.47;;;3.50;;
11731;SDS011;5922;53.734;10.258;2023-03-17T11:06:03;6.07;;;3.00;;
11731;SDS011;5922;53.734;10.258;2023-03-17T11:08:31;5.93;;;3.20;;
11731;SDS011;5922;53.734;10.258;2023-03-17T11:10:59;4.70;;;3.33;;
11731;SDS011;5922;53.734;10.258;2023-03-17T11:13:27;5.20;;;3.13;;
11731;SDS011;5922;53.734;10.258;2023-03-17T11:15:57;3.40;;;2.90;;
11731;SDS011;5922;53.734;10.258;2023-03-17T11:18:29;3.93;;;3.03;;
11731;SDS011;5922;53.734;10.258;2023-03-17T11:21:03;4.17;;;3.20;;
11731;SDS011;5922;53.734;10.258;2023-03-17T11:23:39;3.80;;;2.90;;
11731;SDS011;5922;53.734;10.258;2023-03-17T11:26:11;3.53;;;2.90;;
11731;SDS011;5922;53.734;10.258;2023-03-17T11:28:41;4.00;;;3.03;;
11731;SDS011;5922;53.734;10.258;2023-03-17T11:31:15;5.50;;;3.03;;
11731;SDS011;5922;53.734;10.258;2023-03-17T11:33:51;5.53;;;3.73;;
11731;SDS011;5922;53.734;10.258;2023-03-17T11:36:25;3.37;;;2.80;;
11731;SDS011;5922;53.734;10.258;2023-03-17T11:38:58;4.40;;;3.30;;
11731;SDS011;5922;53.734;10.258;2023-03-17T11:41:40;3.97;;;3.10;;
11731;SDS011;5922;53.734;10.258;2023-03-17T11:44:14;5.80;;;3.47;;
11731;SDS011;5922;53.734;10.258;2023-03-17T11:46:46;4.93;;;3.70;;
11731;SDS011;5922;53.734;10.258;2023-03-17T11:49:19;4.23;;;3.30;;
11731;SDS011;5922;53.734;10.258;2023-03-17T11:51:51;5.53;;;3.37;;
11731;SDS011;5922;53.734;10.258;2023-03-17T11:54:24;3.93;;;2.60;;
11731;SDS011;5922;53.734;10.258;2023-03-17T11:56:55;6.70;;;3.50;;
11731;SDS011;5922;53.734;10.258;2023-03-17T11:59:25;4.37;;;2.80;;
11731;SDS011;5922;53.734;10.258;2023-03-17T12:01:55;7.03;;;3.17;;
11731;SDS011;5922;53.734;10.258;2023-03-17T12:04:26;4.33;;;3.40;;
11731;SDS011;5922;53.734;10.258;2023-03-17T12:06:58;3.80;;;3.20;;
11731;SDS011;5922;53.734;10.258;2023-03-17T12:09:30;5.63;;;3.20;;
11731;SDS011;5922;53.734;10.258;2023-03-17T12:12:00;4.10;;;3.10;;
11731;SDS011;5922;53.734;10.258;2023-03-17T12:14:30;7.30;;;3.00;;
11731;SDS011;5922;53.734;10.258;2023-03-17T12:17:00;6.20;;;3.13;;
11731;SDS011;5922;53.734;10.258;2023-03-17T12:19:34;4.63;;;3.03;;
11731;SDS011;5922;53.734;10.258;2023-03-17T12:22:04;6.57;;;3.10;;
11731;SDS011;5922;53.734;10.258;2023-03-17T12:24:34;3.20;;;2.67;;
11731;SDS011;5922;53.734;10.258;2023-03-17T12:27:03;5.30;;;3.07;;
11731;SDS011;5922;53.734;10.258;2023-03-17T12:29:36;3.57;;;3.03;;
11731;SDS011;5922;53.734;10.258;2023-03-17T12:32:09;4.07;;;2.70;;
11731;SDS011;5922;53.734;10.258;2023-03-17T12:34:39;6.17;;;3.10;;
11731;SDS011;5922;53.734;10.258;2023-03-17T12:37:10;3.33;;;2.70;;
11731;SDS011;5922;53.734;10.258;2023-03-17T12:39:38;5.77;;;3.40;;
11731;SDS011;5922;53.734;10.258;2023-03-17T12:42:15;5.47;;;2.70;;
11731;SDS011;5922;53.734;10.258;2023-03-17T12:44:48;3.90;;;3.03;;
11731;SDS011;5922;53.734;10.258;2023-03-17T12:47:33;4.73;;;2.70;;
11731;SDS011;5922;53.734;10.258;2023-03-17T12:50:11;3.37;;;2.80;;
11731;SDS011;5922;53.734;10.258;2023-03-17T12:52:43;5.37;;;3.00;;
11731;SDS011;5922;53.734;10.258;2023-03-17T12:55:14;4.57;;;3.17;;
11731;SDS011;5922;53.734;10.258;2023-03-17T12:57:43;3.77;;;2.97;;
11731;SDS011;5922;53.734;10.258;2023-03-17T13:00:15;3.50;;;2.87;;
11731;SDS011;5922;53.734;10.258;2023-03-17T13:02:47;4.00;;;2.90;;
11731;SDS011;5922;53.734;10.258;2023-03-17T13:05:16;5.87;;;3.13;;
11731;SDS011;5922;53.734;10.258;2023-03-17T13:07:45;3.17;;;2.83;;
11731;SDS011;5922;53.734;10.258;2023-03-17T13:10:20;3.63;;;2.70;;
11731;SDS011;5922;53.734;10.258;2023-03-17T13:13:05;5.07;;;2.90;;
11731;SDS011;5922;53.734;10.258;2023-03-17T13:15:56;4.00;;;2.83;;
11731;SDS011;5922;53.734;10.258;2023-03-17T13:18:32;3.13;;;2.83;;
11731;SDS011;5922;53.734;10.258;2023-03-17T13:21:12;3.97;;;2.77;;
11731;SDS011;5922;53.734;10.258;2023-03-17T13:23:40;5.30;;;2.67;;
11731;SDS011;5922;53.734;10.258;2023-03-17T13:26:10;3.77;;;2.70;;
11731;SDS011;5922;53.734;10.258;2023-03-17T13:28:41;5.00;;;2.57;;
11731;SDS011;5922;53.734;10.258;2023-03-17T13:33:57;6.50;;;2.80;;
11731;SDS011;5922;53.734;10.258;2023-03-17T13:36:31;7.87;;;3.20;;
11731;SDS011;5922;53.734;10.258;2023-03-17T13:41:50;5.90;;;2.77;;
11731;SDS011;5922;53.734;10.258;2023-03-17T13:44:28;3.50;;;2.80;;
11731;SDS011;5922;53.734;10.258;2023-03-17T13:47:07;3.60;;;2.70;;
11731;SDS011;5922;53.734;10.258;2023-03-17T13:49:37;4.33;;;2.80;;
11731;SDS011;5922;53.734;10.258;2023-03-17T13:52:10;2.60;;;2.40;;
11731;SDS011;5922;53.734;10.258;2023-03-17T13:54:39;2.97;;;2.53;;
11731;SDS011;5922;53.734;10.258;2023-03-17T13:57:23;3.83;;;2.37;;
11731;SDS011;5922;53.734;10.258;2023-03-17T13:59:58;3.60;;;2.50;;
11731;SDS011;5922;53.734;10.258;2023-03-17T14:02:28;4.10;;;2.50;;
11731;SDS011;5922;53.734;10.258;2023-03-17T14:04:56;3.90;;;2.70;;
11731;SDS011;5922;53.734;10.258;2023-03-17T14:07:27;3.03;;;2.43;;
11731;SDS011;5922;53.734;10.258;2023-03-17T14:09:56;3.93;;;2.63;;
11731;SDS011;5922;53.734;10.258;2023-03-17T14:12:27;3.43;;;2.80;;
11731;SDS011;5922;53.734;10.258;2023-03-17T14:14:57;4.70;;;2.70;;
11731;SDS011;5922;53.734;10.258;2023-03-17T14:17:29;5.13;;;2.70;;
11731;SDS011;5922;53.734;10.258;2023-03-17T14:19:58;3.00;;;2.47;;
11731;SDS011;5922;53.734;10.258;2023-03-17T14:22:27;4.73;;;2.70;;
11731;SDS011;5922;53.734;10.258;2023-03-17T14:24:54;4.07;;;2.60;;
11731;SDS011;5922;53.734;10.258;2023-03-17T14:27:25;4.73;;;2.73;;
11731;SDS011;5922;53.734;10.258;2023-03-17T14:29:53;4.13;;;2.80;;
11731;SDS011;5922;53.734;10.258;2023-03-17T14:32:22;5.97;;;2.80;;
11731;SDS011;5922;53.734;10.258;2023-03-17T14:34:53;5.00;;;2.90;;
11731;SDS011;5922;53.734;10.258;2023-03-17T14:37:20;3.80;;;2.90;;
11731;SDS011;5922;53.734;10.258;2023-03-17T14:39:50;4.37;;;2.80;;
11731;SDS011;5922;53.734;10.258;2023-03-17T14:42:19;6.40;;;2.80;;
11731;SDS011;5922;53.734;10.258;2023-03-17T14:44:58;3.80;;;2.83;;
11731;SDS011;5922;53.734;10.258;2023-03-17T14:47:26;3.57;;;2.40;;
11731;SDS011;5922;53.734;10.258;2023-03-17T14:49:53;2.73;;;2.40;;
11731;SDS011;5922;53.734;10.258;2023-03-17T14:52:22;3.30;;;2.53;;
11731;SDS011;5922;53.734;10.258;2023-03-17T14:54:53;2.73;;;2.43;;
11731;SDS011;5922;53.734;10.258;2023-03-17T14:57:21;4.33;;;2.87;;
11731;SDS011;5922;53.734;10.258;2023-03-17T14:59:55;4.30;;;3.10;;
11731;SDS011;5922;53.734;10.258;2023-03-17T15:02:26;2.63;;;2.30;;
11731;SDS011;5922;53.734;10.258;2023-03-17T15:04:54;2.47;;;2.20;;
11731;SDS011;5922;53.734;10.258;2023-03-17T15:07:30;4.73;;;2.33;;
11731;SDS011;5922;53.734;10.258;2023-03-17T15:09:59;4.70;;;2.20;;
11731;SDS011;5922;53.734;10.258;2023-03-17T15:12:27;3.07;;;2.10;;
11731;SDS011;5922;53.734;10.258;2023-03-17T15:15:10;4.47;;;2.07;;
11731;SDS011;5922;53.734;10.258;2023-03-17T15:17:42;3.13;;;1.97;;
11731;SDS011;5922;53.734;10.258;2023-03-17T15:20:11;2.30;;;2.10;;
11731;SDS011;5922;53.734;10.258;2023-03-17T15:22:41;5.20;;;2.33;;
11731;SDS011;5922;53.734;10.258;2023-03-17T15:25:18;5.57;;;2.20;;
11731;SDS011;5922;53.734;10.258;2023-03-17T15:27:45;4.70;;;2.17;;
11731;SDS011;5922;53.734;10.258;2023-03-17T15:30:13;4.40;;;2.03;;
11731;SDS011;5922;53.734;10.258;2023-03-17T15:32:41;2.50;;;2.20;;